sensor_id;sensor_type;location;lat;lon;timestamp;temperature;humidity
52415;DHT22;38340;52.964;6.086;2024-01-30T00:01:36;6.50;99.90
52415;DHT22;38340;52.964;6.086;2024-01-30T00:04:02;6.40;99.90
52415;DHT22;38340;52.964;6.086;2024-01-30T00:06:28;6.40;99.90
52415;DHT22;38340;52.964;6.086;2024-01-30T00:08:53;6.40;99.90
52415;DHT22;38340;52.964;6.086;2024-01-30T00:11:19;6.50;99.90
52415;DHT22;38340;52.964;6.086;2024-01-30T00:13:45;6.40;99.90
52415;DHT22;38340;52.964;6.086;2024-01-30T00:16:20;6.40;99.90
52415;DHT22;38340;52.964;6.086;2024-01-30T00:18:47;6.40;99.90
52415;DHT22;38340;52.964;6.086;2024-01-30T00:21:13;6.40;99.90
52415;DHT22;38340;52.964;6.086;2024-01-30T00:23:38;6.40;99.90
52415;DHT22;38340;52.964;6.086;2024-01-30T00:26:04;6.40;99.90
52415;DHT22;38340;52.964;6.086;2024-01-30T00:28:30;6.50;99.90
52415;DHT22;38340;52.964;6.086;2024-01-30T00:30:56;6.40;99.90
52415;DHT22;38340;52.964;6.086;2024-01-30T00:33:22;6.50;99.90
52415;DHT22;38340;52.964;6.086;2024-01-30T00:35:48;6.50;99.90
52415;DHT22;38340;52.964;6.086;2024-01-30T00:38:13;6.50;99.90
52415;DHT22;38340;52.964;6.086;2024-01-30T00:40:39;6.40;99.90
52415;DHT22;38340;52.964;6.086;2024-01-30T00:43:05;6.40;99.90
52415;DHT22;38340;52.964;6.086;2024-01-30T00:45:31;6.40;99.90
52415;DHT22;38340;52.964;6.086;2024-01-30T00:47:56;6.40;99.90
52415;DHT22;38340;52.964;6.086;2024-01-30T00:50:22;6.40;99.90
52415;DHT22;38340;52.964;6.086;2024-01-30T00:52:48;6.30;99.90
52415;DHT22;38340;52.964;6.086;2024-01-30T00:55:13;6.30;99.90
52415;DHT22;38340;52.964;6.086;2024-01-30T00:57:40;6.30;99.90
52415;DHT22;38340;52.964;6.086;2024-01-30T01:00:06;6.20;99.90
52415;DHT22;38340;52.964;6.086;2024-01-30T01:02:34;6.20;99.90
52415;DHT22;38340;52.964;6.086;2024-01-30T01:05:00;6.20;99.90
52415;DHT22;38340;52.964;6.086;2024-01-30T01:07:26;6.10;99.90
52415;DHT22;38340;52.964;6.086;2024-01-30T01:09:51;6.10;99.90
52415;DHT22;38340;52.964;6.086;2024-01-30T01:12:17;6.00;99.90
52415;DHT22;38340;52.964;6.086;2024-01-30T01:14:43;6.00;99.90
52415;DHT22;38340;52.964;6.086;2024-01-30T01:17:08;6.00;99.90
52415;DHT22;38340;52.964;6.086;2024-01-30T01:19:34;6.00;99.90
52415;DHT22;38340;52.964;6.086;2024-01-30T01:22:00;6.00;99.90
52415;DHT22;38340;52.964;6.086;2024-01-30T01:24:25;5.90;99.90
52415;DHT22;38340;52.964;6.086;2024-01-30T01:26:51;5.90;99.90
52415;DHT22;38340;52.964;6.086;2024-01-30T01:29:17;5.90;99.90
52415;DHT22;38340;52.964;6.086;2024-01-30T01:31:42;5.90;99.90
52415;DHT22;38340;52.964;6.086;2024-01-30T01:34:12;5.90;99.90
52415;DHT22;38340;52.964;6.086;2024-01-30T01:36:38;5.90;99.90
52415;DHT22;38340;52.964;6.086;2024-01-30T01:39:04;5.90;99.90
52415;DHT22;38340;52.964;6.086;2024-01-30T01:41:31;5.90;99.90
52415;DHT22;38340;52.964;6.086;2024-01-30T01:43:57;5.90;99.90
52415;DHT22;38340;52.964;6.086;2024-01-30T01:46:24;5.90;99.90
52415;DHT22;38340;52.964;6.086;2024-01-30T01:48:50;5.90;99.90
52415;DHT22;38340;52.964;6.086;2024-01-30T01:51:16;5.90;99.90
52415;DHT22;38340;52.964;6.086;2024-01-30T01:53:42;5.90;99.90
52415;DHT22;38340;52.964;6.086;2024-01-30T01:56:08;5.90;99.90
52415;DHT22;38340;52.964;6.086;2024-01-30T01:58:34;5.90;99.90
52415;DHT22;38340;52.964;6.086;2024-01-30T02:01:02;5.90;99.90
52415;DHT22;38340;52.964;6.086;2024-01-30T02:03:27;5.90;99.90
52415;DHT22;38340;52.964;6.086;2024-01-30T02:05:54;5.90;99.90
52415;DHT22;38340;52.964;6.086;2024-01-30T02:08:20;5.90;99.90
52415;DHT22;38340;52.964;6.086;2024-01-30T02:10:46;5.90;99.90
52415;DHT22;38340;52.964;6.086;2024-01-30T02:13:11;5.80;99.90
52415;DHT22;38340;52.964;6.086;2024-01-30T02:15:37;5.80;99.90
52415;DHT22;38340;52.964;6.086;2024-01-30T02:18:03;5.80;99.90
52415;DHT22;38340;52.964;6.086;2024-01-30T02:20:30;5.80;99.90
52415;DHT22;38340;52.964;6.086;2024-01-30T02:22:58;5.80;99.90
52415;DHT22;38340;52.964;6.086;2024-01-30T02:25:42;5.80;99.90
52415;DHT22;38340;52.964;6.086;2024-01-30T02:28:14;5.80;99.90
52415;DHT22;38340;52.964;6.086;2024-01-30T02:30:40;5.70;99.90
52415;DHT22;38340;52.964;6.086;2024-01-30T02:33:08;5.70;99.90
52415;DHT22;38340;52.964;6.086;2024-01-30T02:35:33;5.80;99.90
52415;DHT22;38340;52.964;6.086;2024-01-30T02:37:59;5.80;99.90
52415;DHT22;38340;52.964;6.086;2024-01-30T02:40:25;5.80;99.90
52415;DHT22;38340;52.964;6.086;2024-01-30T02:42:51;5.80;99.90
52415;DHT22;38340;52.964;6.086;2024-01-30T02:45:17;5.80;99.90
52415;DHT22;38340;52.964;6.086;2024-01-30T02:47:42;5.80;99.90
52415;DHT22;38340;52.964;6.086;2024-01-30T02:50:09;5.80;99.90
52415;DHT22;38340;52.964;6.086;2024-01-30T02:52:34;5.80;99.90
52415;DHT22;38340;52.964;6.086;2024-01-30T02:55:01;5.80;99.90
52415;DHT22;38340;52.964;6.086;2024-01-30T02:57:28;5.80;99.90
52415;DHT22;38340;52.964;6.086;2024-01-30T02:59:54;5.80;99.90
52415;DHT22;38340;52.964;6.086;2024-01-30T03:02:19;5.90;99.90
52415;DHT22;38340;52.964;6.086;2024-01-30T03:04:45;5.90;99.90
52415;DHT22;38340;52.964;6.086;2024-01-30T03:07:11;6.00;99.90
52415;DHT22;38340;52.964;6.086;2024-01-30T03:09:37;6.00;99.90
52415;DHT22;38340;52.964;6.086;2024-01-30T03:12:04;6.10;99.90
52415;DHT22;38340;52.964;6.086;2024-01-30T03:14:33;6.20;99.90
52415;DHT22;38340;52.964;6.086;2024-01-30T03:16:58;6.20;99.90
52415;DHT22;38340;52.964;6.086;2024-01-30T03:19:24;6.20;99.90
52415;DHT22;38340;52.964;6.086;2024-01-30T03:21:50;6.30;99.90
52415;DHT22;38340;52.964;6.086;2024-01-30T03:24:16;6.30;99.90
52415;DHT22;38340;52.964;6.086;2024-01-30T03:26:43;6.30;99.90
52415;DHT22;38340;52.964;6.086;2024-01-30T03:29:08;6.30;99.90
52415;DHT22;38340;52.964;6.086;2024-01-30T03:31:34;6.40;99.90
52415;DHT22;38340;52.964;6.086;2024-01-30T03:34:01;6.40;99.90
52415;DHT22;38340;52.964;6.086;2024-01-30T03:36:26;6.40;99.90
52415;DHT22;38340;52.964;6.086;2024-01-30T03:38:52;6.50;99.90
52415;DHT22;38340;52.964;6.086;2024-01-30T03:41:18;6.50;99.90
52415;DHT22;38340;52.964;6.086;2024-01-30T03:43:44;6.50;99.90
52415;DHT22;38340;52.964;6.086;2024-01-30T03:46:12;6.50;99.90
52415;DHT22;38340;52.964;6.086;2024-01-30T03:48:38;6.60;99.90
52415;DHT22;38340;52.964;6.086;2024-01-30T03:51:05;6.50;99.90
52415;DHT22;38340;52.964;6.086;2024-01-30T03:53:31;6.50;99.90
52415;DHT22;38340;52.964;6.086;2024-01-30T03:55:57;6.40;99.90
52415;DHT22;38340;52.964;6.086;2024-01-30T03:58:22;6.40;99.90
52415;DHT22;38340;52.964;6.086;2024-01-30T04:00:48;6.40;99.90
52415;DHT22;38340;52.964;6.086;2024-01-30T04:03:15;6.40;99.90
52415;DHT22;38340;52.964;6.086;2024-01-30T04:05:41;6.30;99.90
52415;DHT22;38340;52.964;6.086;2024-01-30T04:08:07;6.30;99.90
52415;DHT22;38340;52.964;6.086;2024-01-30T04:10:33;6.20;99.90
52415;DHT22;38340;52.964;6.086;2024-01-30T04:12:59;6.30;99.90
52415;DHT22;38340;52.964;6.086;2024-01-30T04:15:25;6.20;99.90
52415;DHT22;38340;52.964;6.086;2024-01-30T04:17:51;6.20;99.90
52415;DHT22;38340;52.964;6.086;2024-01-30T04:20:17;6.30;99.90
52415;DHT22;38340;52.964;6.086;2024-01-30T04:22:44;6.20;99.90
52415;DHT22;38340;52.964;6.086;2024-01-30T04:25:10;6.30;99.90
52415;DHT22;38340;52.964;6.086;2024-01-30T04:27:36;6.30;99.90
52415;DHT22;38340;52.964;6.086;2024-01-30T04:30:01;6.40;99.90
52415;DHT22;38340;52.964;6.086;2024-01-30T04:32:27;6.40;99.90
52415;DHT22;38340;52.964;6.086;2024-01-30T04:34:53;6.50;99.90
52415;DHT22;38340;52.964;6.086;2024-01-30T04:37:18;6.60;99.90
52415;DHT22;38340;52.964;6.086;2024-01-30T04:39:44;6.70;99.90
52415;DHT22;38340;52.964;6.086;2024-01-30T04:42:10;6.70;99.90
52415;DHT22;38340;52.964;6.086;2024-01-30T04:44:35;6.70;99.90
52415;DHT22;38340;52.964;6.086;2024-01-30T04:47:01;6.70;99.90
52415;DHT22;38340;52.964;6.086;2024-01-30T04:49:27;6.80;99.90
52415;DHT22;38340;52.964;6.086;2024-01-30T04:51:54;6.80;99.90
52415;DHT22;38340;52.964;6.086;2024-01-30T04:54:20;6.80;99.90
52415;DHT22;38340;52.964;6.086;2024-01-30T04:56:46;6.90;99.90
52415;DHT22;38340;52.964;6.086;2024-01-30T04:59:12;7.00;99.90
52415;DHT22;38340;52.964;6.086;2024-01-30T05:01:37;7.00;99.90
52415;DHT22;38340;52.964;6.086;2024-01-30T05:04:03;7.00;99.90
52415;DHT22;38340;52.964;6.086;2024-01-30T05:06:29;7.00;99.90
52415;DHT22;38340;52.964;6.086;2024-01-30T05:08:55;7.00;99.90
52415;DHT22;38340;52.964;6.086;2024-01-30T05:11:21;7.00;99.90
52415;DHT22;38340;52.964;6.086;2024-01-30T05:13:46;7.10;99.90
52415;DHT22;38340;52.964;6.086;2024-01-30T05:16:13;7.00;99.90
52415;DHT22;38340;52.964;6.086;2024-01-30T05:18:38;7.00;99.90
52415;DHT22;38340;52.964;6.086;2024-01-30T05:21:05;7.10;99.90
52415;DHT22;38340;52.964;6.086;2024-01-30T05:23:31;7.00;99.90
52415;DHT22;38340;52.964;6.086;2024-01-30T05:25:57;7.10;99.90
52415;DHT22;38340;52.964;6.086;2024-01-30T05:28:22;7.10;99.90
52415;DHT22;38340;52.964;6.086;2024-01-30T05:30:48;7.10;99.90
52415;DHT22;38340;52.964;6.086;2024-01-30T05:33:14;7.10;99.90
52415;DHT22;38340;52.964;6.086;2024-01-30T05:35:39;7.10;99.90
52415;DHT22;38340;52.964;6.086;2024-01-30T05:38:05;7.10;99.90
52415;DHT22;38340;52.964;6.086;2024-01-30T05:40:31;7.10;99.90
52415;DHT22;38340;52.964;6.086;2024-01-30T05:42:57;7.10;99.90
52415;DHT22;38340;52.964;6.086;2024-01-30T05:45:26;7.00;99.90
52415;DHT22;38340;52.964;6.086;2024-01-30T05:47:52;7.00;99.90
52415;DHT22;38340;52.964;6.086;2024-01-30T05:50:19;7.00;99.90
52415;DHT22;38340;52.964;6.086;2024-01-30T05:52:45;7.00;99.90
52415;DHT22;38340;52.964;6.086;2024-01-30T05:55:11;7.00;99.90
52415;DHT22;38340;52.964;6.086;2024-01-30T05:57:37;7.00;99.90
52415;DHT22;38340;52.964;6.086;2024-01-30T06:00:04;6.90;99.90
52415;DHT22;38340;52.964;6.086;2024-01-30T06:02:31;6.90;99.90
52415;DHT22;38340;52.964;6.086;2024-01-30T06:04:56;6.90;99.90
52415;DHT22;38340;52.964;6.086;2024-01-30T06:07:22;6.90;99.90
52415;DHT22;38340;52.964;6.086;2024-01-30T06:09:48;6.90;99.90
52415;DHT22;38340;52.964;6.086;2024-01-30T06:12:13;7.00;99.90
52415;DHT22;38340;52.964;6.086;2024-01-30T06:14:39;6.90;99.90
52415;DHT22;38340;52.964;6.086;2024-01-30T06:17:05;7.00;99.90
52415;DHT22;38340;52.964;6.086;2024-01-30T06:19:31;7.00;99.90
52415;DHT22;38340;52.964;6.086;2024-01-30T06:21:57;7.00;99.90
52415;DHT22;38340;52.964;6.086;2024-01-30T06:24:22;7.00;99.90
52415;DHT22;38340;52.964;6.086;2024-01-30T06:26:48;7.00;99.90
52415;DHT22;38340;52.964;6.086;2024-01-30T06:29:14;7.00;99.90
52415;DHT22;38340;52.964;6.086;2024-01-30T06:31:43;7.10;99.90
52415;DHT22;38340;52.964;6.086;2024-01-30T06:34:12;7.00;99.90
52415;DHT22;38340;52.964;6.086;2024-01-30T06:36:38;7.00;99.90
52415;DHT22;38340;52.964;6.086;2024-01-30T06:39:04;7.00;99.90
52415;DHT22;38340;52.964;6.086;2024-01-30T06:41:30;7.10;99.90
52415;DHT22;38340;52.964;6.086;2024-01-30T06:43:56;7.10;99.90
52415;DHT22;38340;52.964;6.086;2024-01-30T06:46:22;7.10;99.90
52415;DHT22;38340;52.964;6.086;2024-01-30T06:48:48;7.20;99.90
52415;DHT22;38340;52.964;6.086;2024-01-30T06:51:14;7.10;99.90
52415;DHT22;38340;52.964;6.086;2024-01-30T06:53:40;7.10;99.90
52415;DHT22;38340;52.964;6.086;2024-01-30T06:56:06;7.20;99.90
52415;DHT22;38340;52.964;6.086;2024-01-30T06:58:31;7.20;99.90
52415;DHT22;38340;52.964;6.086;2024-01-30T07:00:58;7.20;99.90
52415;DHT22;38340;52.964;6.086;2024-01-30T07:03:23;7.20;99.90
52415;DHT22;38340;52.964;6.086;2024-01-30T07:05:49;7.20;99.90
52415;DHT22;38340;52.964;6.086;2024-01-30T07:08:18;7.20;99.90
52415;DHT22;38340;52.964;6.086;2024-01-30T07:10:44;7.20;99.90
52415;DHT22;38340;52.964;6.086;2024-01-30T07:13:13;7.20;99.90
52415;DHT22;38340;52.964;6.086;2024-01-30T07:15:42;7.20;99.90
52415;DHT22;38340;52.964;6.086;2024-01-30T07:18:07;7.20;99.90
52415;DHT22;38340;52.964;6.086;2024-01-30T07:20:33;7.20;99.90
52415;DHT22;38340;52.964;6.086;2024-01-30T07:22:59;7.20;99.90
52415;DHT22;38340;52.964;6.086;2024-01-30T07:25:24;7.20;99.90
52415;DHT22;38340;52.964;6.086;2024-01-30T07:27:55;7.20;99.90
52415;DHT22;38340;52.964;6.086;2024-01-30T07:30:21;7.30;99.90
52415;DHT22;38340;52.964;6.086;2024-01-30T07:32:48;7.30;99.90
52415;DHT22;38340;52.964;6.086;2024-01-30T07:35:14;7.30;99.90
52415;DHT22;38340;52.964;6.086;2024-01-30T07:37:40;7.30;99.90
52415;DHT22;38340;52.964;6.086;2024-01-30T07:40:06;7.40;99.90
52415;DHT22;38340;52.964;6.086;2024-01-30T07:42:33;7.40;99.90
52415;DHT22;38340;52.964;6.086;2024-01-30T07:44:59;7.40;99.90
52415;DHT22;38340;52.964;6.086;2024-01-30T07:47:25;7.40;99.90
52415;DHT22;38340;52.964;6.086;2024-01-30T07:49:51;7.50;99.90
52415;DHT22;38340;52.964;6.086;2024-01-30T07:52:17;7.50;99.90
52415;DHT22;38340;52.964;6.086;2024-01-30T07:54:49;7.50;99.90
52415;DHT22;38340;52.964;6.086;2024-01-30T07:57:15;7.50;99.90
52415;DHT22;38340;52.964;6.086;2024-01-30T07:59:43;7.50;99.90
52415;DHT22;38340;52.964;6.086;2024-01-30T08:02:10;7.50;99.90
52415;DHT22;38340;52.964;6.086;2024-01-30T08:04:36;7.50;99.90
52415;DHT22;38340;52.964;6.086;2024-01-30T08:07:01;7.60;99.90
52415;DHT22;38340;52.964;6.086;2024-01-30T08:09:27;7.50;99.90
52415;DHT22;38340;52.964;6.086;2024-01-30T08:11:53;7.60;99.90
52415;DHT22;38340;52.964;6.086;2024-01-30T08:14:19;7.60;99.90
52415;DHT22;38340;52.964;6.086;2024-01-30T08:16:44;7.60;99.90
52415;DHT22;38340;52.964;6.086;2024-01-30T08:19:10;7.50;99.90
52415;DHT22;38340;52.964;6.086;2024-01-30T08:21:36;7.60;99.90
52415;DHT22;38340;52.964;6.086;2024-01-30T08:24:05;7.60;99.90
52415;DHT22;38340;52.964;6.086;2024-01-30T08:26:34;7.60;99.90
52415;DHT22;38340;52.964;6.086;2024-01-30T08:29:01;7.60;99.90
52415;DHT22;38340;52.964;6.086;2024-01-30T08:31:27;7.60;99.90
52415;DHT22;38340;52.964;6.086;2024-01-30T08:33:52;7.70;99.90
52415;DHT22;38340;52.964;6.086;2024-01-30T08:36:19;7.70;99.90
52415;DHT22;38340;52.964;6.086;2024-01-30T08:38:45;7.70;99.90
52415;DHT22;38340;52.964;6.086;2024-01-30T08:41:11;7.70;99.90
52415;DHT22;38340;52.964;6.086;2024-01-30T08:43:37;7.80;99.90
52415;DHT22;38340;52.964;6.086;2024-01-30T08:46:03;7.80;99.90
52415;DHT22;38340;52.964;6.086;2024-01-30T08:48:29;7.80;99.90
52415;DHT22;38340;52.964;6.086;2024-01-30T08:50:55;7.90;99.90
52415;DHT22;38340;52.964;6.086;2024-01-30T08:53:21;8.00;99.90
52415;DHT22;38340;52.964;6.086;2024-01-30T08:55:47;8.00;99.90
52415;DHT22;38340;52.964;6.086;2024-01-30T08:58:12;8.00;99.90
52415;DHT22;38340;52.964;6.086;2024-01-30T09:00:38;8.10;99.90
52415;DHT22;38340;52.964;6.086;2024-01-30T09:03:04;8.10;99.90
52415;DHT22;38340;52.964;6.086;2024-01-30T09:05:29;8.30;99.90
52415;DHT22;38340;52.964;6.086;2024-01-30T09:07:55;8.30;99.90
52415;DHT22;38340;52.964;6.086;2024-01-30T09:10:21;8.40;99.90
52415;DHT22;38340;52.964;6.086;2024-01-30T09:12:47;8.50;99.90
52415;DHT22;38340;52.964;6.086;2024-01-30T09:15:13;8.50;99.90
52415;DHT22;38340;52.964;6.086;2024-01-30T09:17:39;8.60;99.90
52415;DHT22;38340;52.964;6.086;2024-01-30T09:20:05;8.60;99.90
52415;DHT22;38340;52.964;6.086;2024-01-30T09:22:31;8.60;99.90
52415;DHT22;38340;52.964;6.086;2024-01-30T09:24:57;8.60;99.90
52415;DHT22;38340;52.964;6.086;2024-01-30T09:27:23;8.60;99.90
52415;DHT22;38340;52.964;6.086;2024-01-30T09:29:49;8.60;99.90
52415;DHT22;38340;52.964;6.086;2024-01-30T09:32:14;8.70;99.90
52415;DHT22;38340;52.964;6.086;2024-01-30T09:34:40;8.70;99.90
52415;DHT22;38340;52.964;6.086;2024-01-30T09:37:07;8.70;99.90
52415;DHT22;38340;52.964;6.086;2024-01-30T09:39:33;8.80;99.90
52415;DHT22;38340;52.964;6.086;2024-01-30T09:42:16;8.80;99.90
52415;DHT22;38340;52.964;6.086;2024-01-30T09:44:43;8.90;99.90
52415;DHT22;38340;52.964;6.086;2024-01-30T09:47:10;9.00;99.90
52415;DHT22;38340;52.964;6.086;2024-01-30T09:49:36;9.10;99.90
52415;DHT22;38340;52.964;6.086;2024-01-30T09:52:05;9.20;99.90
52415;DHT22;38340;52.964;6.086;2024-01-30T09:54:31;9.30;99.90
52415;DHT22;38340;52.964;6.086;2024-01-30T09:56:57;9.40;99.90
52415;DHT22;38340;52.964;6.086;2024-01-30T09:59:23;9.40;99.90
52415;DHT22;38340;52.964;6.086;2024-01-30T10:01:50;9.40;99.90
52415;DHT22;38340;52.964;6.086;2024-01-30T10:04:16;9.50;99.90
52415;DHT22;38340;52.964;6.086;2024-01-30T10:06:42;9.50;99.90
52415;DHT22;38340;52.964;6.086;2024-01-30T10:09:08;9.50;99.90
52415;DHT22;38340;52.964;6.086;2024-01-30T10:11:36;9.50;99.90
52415;DHT22;38340;52.964;6.086;2024-01-30T10:14:02;9.60;99.90
52415;DHT22;38340;52.964;6.086;2024-01-30T10:16:28;9.60;99.90
52415;DHT22;38340;52.964;6.086;2024-01-30T10:18:54;9.60;99.90
52415;DHT22;38340;52.964;6.086;2024-01-30T10:21:20;9.60;99.90
52415;DHT22;38340;52.964;6.086;2024-01-30T10:23:46;9.60;99.90
52415;DHT22;38340;52.964;6.086;2024-01-30T10:26:12;9.70;99.90
52415;DHT22;38340;52.964;6.086;2024-01-30T10:28:38;9.70;99.90
52415;DHT22;38340;52.964;6.086;2024-01-30T10:31:04;9.70;99.90
52415;DHT22;38340;52.964;6.086;2024-01-30T10:33:30;9.70;99.90
52415;DHT22;38340;52.964;6.086;2024-01-30T10:36:03;9.80;99.90
52415;DHT22;38340;52.964;6.086;2024-01-30T10:38:30;9.80;99.90
52415;DHT22;38340;52.964;6.086;2024-01-30T10:40:57;9.80;99.90
52415;DHT22;38340;52.964;6.086;2024-01-30T10:43:30;9.90;99.90
52415;DHT22;38340;52.964;6.086;2024-01-30T10:45:57;9.90;99.90
52415;DHT22;38340;52.964;6.086;2024-01-30T10:48:30;9.90;99.90
52415;DHT22;38340;52.964;6.086;2024-01-30T10:50:57;10.00;99.90
52415;DHT22;38340;52.964;6.086;2024-01-30T10:53:25;10.10;99.90
52415;DHT22;38340;52.964;6.086;2024-01-30T10:55:51;10.00;99.90
52415;DHT22;38340;52.964;6.086;2024-01-30T10:58:18;10.00;99.90
52415;DHT22;38340;52.964;6.086;2024-01-30T11:00:44;10.00;99.90
52415;DHT22;38340;52.964;6.086;2024-01-30T11:03:11;9.90;99.90
52415;DHT22;38340;52.964;6.086;2024-01-30T11:05:40;9.80;99.90
52415;DHT22;38340;52.964;6.086;2024-01-30T11:08:13;9.80;99.90
52415;DHT22;38340;52.964;6.086;2024-01-30T11:10:49;9.70;99.90
52415;DHT22;38340;52.964;6.086;2024-01-30T11:13:16;9.70;99.90
52415;DHT22;38340;52.964;6.086;2024-01-30T11:15:44;9.70;99.90
52415;DHT22;38340;52.964;6.086;2024-01-30T11:18:23;9.60;99.90
52415;DHT22;38340;52.964;6.086;2024-01-30T11:20:49;9.50;99.90
52415;DHT22;38340;52.964;6.086;2024-01-30T11:23:14;9.50;99.90
52415;DHT22;38340;52.964;6.086;2024-01-30T11:25:40;9.50;99.90
52415;DHT22;38340;52.964;6.086;2024-01-30T11:28:13;9.50;99.90
52415;DHT22;38340;52.964;6.086;2024-01-30T11:30:40;9.40;99.90
52415;DHT22;38340;52.964;6.086;2024-01-30T11:33:08;9.40;99.90
52415;DHT22;38340;52.964;6.086;2024-01-30T11:35:40;9.30;99.90
52415;DHT22;38340;52.964;6.086;2024-01-30T11:38:08;9.40;99.90
52415;DHT22;38340;52.964;6.086;2024-01-30T11:40:35;9.30;99.90
52415;DHT22;38340;52.964;6.086;2024-01-30T11:43:01;9.30;99.90
52415;DHT22;38340;52.964;6.086;2024-01-30T11:45:27;9.30;99.90
52415;DHT22;38340;52.964;6.086;2024-01-30T11:47:54;9.20;99.90
52415;DHT22;38340;52.964;6.086;2024-01-30T11:50:20;9.30;99.90
52415;DHT22;38340;52.964;6.086;2024-01-30T11:52:46;9.30;99.90
52415;DHT22;38340;52.964;6.086;2024-01-30T11:55:13;9.30;99.90
52415;DHT22;38340;52.964;6.086;2024-01-30T11:57:39;9.40;99.90
52415;DHT22;38340;52.964;6.086;2024-01-30T12:00:06;9.40;99.90
52415;DHT22;38340;52.964;6.086;2024-01-30T12:02:36;9.40;99.90
52415;DHT22;38340;52.964;6.086;2024-01-30T12:05:06;9.50;99.90
52415;DHT22;38340;52.964;6.086;2024-01-30T12:07:32;9.50;99.90
52415;DHT22;38340;52.964;6.086;2024-01-30T12:09:58;9.60;99.90
52415;DHT22;38340;52.964;6.086;2024-01-30T12:12:27;9.60;99.90
52415;DHT22;38340;52.964;6.086;2024-01-30T12:14:54;9.50;99.90
52415;DHT22;38340;52.964;6.086;2024-01-30T12:17:30;9.50;99.90
52415;DHT22;38340;52.964;6.086;2024-01-30T12:20:04;9.50;99.90
52415;DHT22;38340;52.964;6.086;2024-01-30T12:22:30;9.40;99.90
52415;DHT22;38340;52.964;6.086;2024-01-30T12:24:56;9.30;99.90
52415;DHT22;38340;52.964;6.086;2024-01-30T12:27:22;9.30;99.90
52415;DHT22;38340;52.964;6.086;2024-01-30T12:29:48;9.20;99.90
52415;DHT22;38340;52.964;6.086;2024-01-30T12:32:22;9.10;99.90
52415;DHT22;38340;52.964;6.086;2024-01-30T12:34:48;9.10;99.90
52415;DHT22;38340;52.964;6.086;2024-01-30T12:37:14;9.00;99.90
52415;DHT22;38340;52.964;6.086;2024-01-30T12:39:42;9.00;99.90
52415;DHT22;38340;52.964;6.086;2024-01-30T12:42:07;9.00;99.90
52415;DHT22;38340;52.964;6.086;2024-01-30T12:44:33;9.00;99.90
52415;DHT22;38340;52.964;6.086;2024-01-30T12:47:03;9.00;99.90
52415;DHT22;38340;52.964;6.086;2024-01-30T12:49:28;9.00;99.90
52415;DHT22;38340;52.964;6.086;2024-01-30T12:51:54;9.10;99.90
52415;DHT22;38340;52.964;6.086;2024-01-30T12:54:20;9.10;99.90
52415;DHT22;38340;52.964;6.086;2024-01-30T12:56:46;9.20;99.90
52415;DHT22;38340;52.964;6.086;2024-01-30T12:59:11;9.20;99.90
52415;DHT22;38340;52.964;6.086;2024-01-30T13:01:37;9.20;99.90
52415;DHT22;38340;52.964;6.086;2024-01-30T13:04:03;9.20;99.90
52415;DHT22;38340;52.964;6.086;2024-01-30T13:06:29;9.20;99.90
52415;DHT22;38340;52.964;6.086;2024-01-30T13:08:54;9.20;99.90
52415;DHT22;38340;52.964;6.086;2024-01-30T13:11:20;9.30;99.90
52415;DHT22;38340;52.964;6.086;2024-01-30T13:13:46;9.20;99.90
52415;DHT22;38340;52.964;6.086;2024-01-30T13:16:11;9.20;99.90
52415;DHT22;38340;52.964;6.086;2024-01-30T13:18:37;9.20;99.90
52415;DHT22;38340;52.964;6.086;2024-01-30T13:21:03;9.20;99.90
52415;DHT22;38340;52.964;6.086;2024-01-30T13:23:28;9.20;99.90
52415;DHT22;38340;52.964;6.086;2024-01-30T13:25:54;9.20;99.90
52415;DHT22;38340;52.964;6.086;2024-01-30T13:28:23;9.20;99.90
52415;DHT22;38340;52.964;6.086;2024-01-30T13:30:49;9.20;99.90
52415;DHT22;38340;52.964;6.086;2024-01-30T13:33:15;9.10;99.90
52415;DHT22;38340;52.964;6.086;2024-01-30T13:35:40;9.00;99.90
52415;DHT22;38340;52.964;6.086;2024-01-30T13:38:06;9.00;99.90
52415;DHT22;38340;52.964;6.086;2024-01-30T13:40:32;8.80;99.90
52415;DHT22;38340;52.964;6.086;2024-01-30T13:42:58;8.80;99.90
52415;DHT22;38340;52.964;6.086;2024-01-30T13:45:23;8.70;99.90
52415;DHT22;38340;52.964;6.086;2024-01-30T13:47:49;8.70;99.90
52415;DHT22;38340;52.964;6.086;2024-01-30T13:50:15;8.60;99.90
52415;DHT22;38340;52.964;6.086;2024-01-30T13:52:42;8.60;99.90
52415;DHT22;38340;52.964;6.086;2024-01-30T13:55:09;8.60;99.90
52415;DHT22;38340;52.964;6.086;2024-01-30T13:57:36;8.40;99.90
52415;DHT22;38340;52.964;6.086;2024-01-30T14:00:03;8.40;99.90
52415;DHT22;38340;52.964;6.086;2024-01-30T14:02:31;8.40;99.90
52415;DHT22;38340;52.964;6.086;2024-01-30T14:04:56;8.30;99.90
52415;DHT22;38340;52.964;6.086;2024-01-30T14:07:22;8.30;99.90
52415;DHT22;38340;52.964;6.086;2024-01-30T14:09:48;8.30;99.90
52415;DHT22;38340;52.964;6.086;2024-01-30T14:12:14;8.30;99.90
52415;DHT22;38340;52.964;6.086;2024-01-30T14:14:40;8.30;99.90
52415;DHT22;38340;52.964;6.086;2024-01-30T14:17:06;8.30;99.90
52415;DHT22;38340;52.964;6.086;2024-01-30T14:19:35;8.30;99.90
52415;DHT22;38340;52.964;6.086;2024-01-30T14:22:02;8.30;99.90
52415;DHT22;38340;52.964;6.086;2024-01-30T14:24:27;8.30;99.90
52415;DHT22;38340;52.964;6.086;2024-01-30T14:26:53;8.30;99.90
52415;DHT22;38340;52.964;6.086;2024-01-30T14:29:19;8.30;99.90
52415;DHT22;38340;52.964;6.086;2024-01-30T14:31:45;8.30;99.90
52415;DHT22;38340;52.964;6.086;2024-01-30T14:34:10;8.30;99.90
52415;DHT22;38340;52.964;6.086;2024-01-30T14:36:39;8.30;99.90
52415;DHT22;38340;52.964;6.086;2024-01-30T14:39:05;8.20;99.90
52415;DHT22;38340;52.964;6.086;2024-01-30T14:41:32;8.20;99.90
52415;DHT22;38340;52.964;6.086;2024-01-30T14:43:58;8.30;99.90
52415;DHT22;38340;52.964;6.086;2024-01-30T14:46:24;8.20;99.90
52415;DHT22;38340;52.964;6.086;2024-01-30T14:48:52;8.20;99.90
52415;DHT22;38340;52.964;6.086;2024-01-30T14:51:18;8.20;99.90
52415;DHT22;38340;52.964;6.086;2024-01-30T14:53:44;8.20;99.90
52415;DHT22;38340;52.964;6.086;2024-01-30T14:56:10;8.20;99.90
52415;DHT22;38340;52.964;6.086;2024-01-30T14:58:36;8.20;99.90
52415;DHT22;38340;52.964;6.086;2024-01-30T15:01:02;8.20;99.90
52415;DHT22;38340;52.964;6.086;2024-01-30T15:03:28;8.20;99.90
52415;DHT22;38340;52.964;6.086;2024-01-30T15:05:54;8.20;99.90
52415;DHT22;38340;52.964;6.086;2024-01-30T15:08:21;8.20;99.90
52415;DHT22;38340;52.964;6.086;2024-01-30T15:10:47;8.20;99.90
52415;DHT22;38340;52.964;6.086;2024-01-30T15:13:12;8.20;99.90
52415;DHT22;38340;52.964;6.086;2024-01-30T15:15:38;8.20;99.90
52415;DHT22;38340;52.964;6.086;2024-01-30T15:18:04;8.20;99.90
52415;DHT22;38340;52.964;6.086;2024-01-30T15:20:30;8.20;99.90
52415;DHT22;38340;52.964;6.086;2024-01-30T15:22:57;8.20;99.90
52415;DHT22;38340;52.964;6.086;2024-01-30T15:25:23;8.20;99.90
52415;DHT22;38340;52.964;6.086;2024-01-30T15:27:48;8.20;99.90
52415;DHT22;38340;52.964;6.086;2024-01-30T15:30:14;8.10;99.90
52415;DHT22;38340;52.964;6.086;2024-01-30T15:32:40;8.10;99.90
52415;DHT22;38340;52.964;6.086;2024-01-30T15:35:06;8.10;99.90
52415;DHT22;38340;52.964;6.086;2024-01-30T15:37:32;8.00;99.90
52415;DHT22;38340;52.964;6.086;2024-01-30T15:39:58;8.10;99.90